MDPP/POP METAR and TAF weather

Enter ICAO airport designator
Station Type Date Time Source
MDPP METAR 2020/06/05 09:00 UTC NOAA

MDPP 050900Z 00000KT 9999 FEW018 26/23 Q1015


Station Type Date Time Source
MDPP Decoded METAR 2020/06/05 09:00 UTC NOAA

Puerto Plata International, Dominican Republic (MDPP) 19-45N 070-33W
Jun 05, 2020 - 05:00 AM EDT / 2020.06.05 0900 UTC
Wind: Calm:0
Visibility: greater than 7 mile(s):0
Sky conditions: mostly clear
Temperature: 78 F (26 C)
Dew Point: 73 F (23 C)
Relative Humidity: 83%
Pressure (altimeter): 29.97 in. Hg (1015 hPa)
ob: MDPP 050900Z 00000KT 9999 FEW018 26/23 Q1015
cycle: 9

Station Type Date Time Source
MDPP TAF 2020/06/05 06:26 UTC NOAA

TAF MDPP 050400Z 0506/0606 00000KT 9999 FEW018 SCT300

Example: see airport list